Time;durP1;ratioP1;P1;durP2;ratioP2;P2;SDS_P1;SDS_P2;PMS_P1;PMS_P2;Temp;Humidity;BMP_temperature;BMP_pressure;BME280_temperature;BME280_humidity;BME280_pressure;Samples;Min_cycle;Max_cycle;Signal;HPM_P1;HPM_P2
2021/05/09 00:01:34;;;;;;;;;;;9.90;99.90;;;;;;5049820;28;19920;-75
2021/05/09 00:03:59;;;;;;;;;;;9.90;99.90;;;;;;5051147;28;19921;-75
2021/05/09 00:06:25;;;;;;;;;;;9.90;99.90;;;;;;5030630;28;19921;-75
2021/05/09 00:08:50;;;;;;;;;;;9.90;99.90;;;;;;5031026;28;20011;-75
2021/05/09 00:11:16;;;;;;;;;;;9.80;99.90;;;;;;5011438;28;20012;-75
2021/05/09 00:13:41;;;;;;;;;;;9.80;99.90;;;;;;5030319;28;20000;-75
2021/05/09 00:16:11;;;;;;;;;;;9.80;99.90;;;;;;5051374;28;19925;-76
2021/05/09 00:18:39;;;;;;;;;;;9.70;99.90;;;;;;5049731;28;20006;-75
2021/05/09 00:21:07;;;;;;;;;;;9.70;99.90;;;;;;5050420;28;20577;-75
2021/05/09 00:23:33;;;;;;;;;;;9.70;99.90;;;;;;5033076;28;20684;-75
2021/05/09 00:26:01;;;;;;;;;;;9.70;99.90;;;;;;5050417;28;19925;-75
2021/05/09 00:28:26;;;;;;;;;;;9.70;99.90;;;;;;5049034;28;19960;-75
2021/05/09 00:30:52;;;;;;;;;;;9.60;99.90;;;;;;5048672;28;20036;-75
2021/05/09 00:33:17;;;;;;;;;;;9.70;99.90;;;;;;5050200;28;19959;-75
2021/05/09 00:35:45;;;;;;;;;;;9.70;99.90;;;;;;5049954;28;19927;-76
2021/05/09 00:38:13;;;;;;;;;;;9.60;99.90;;;;;;5049438;28;19920;-75
2021/05/09 00:40:38;;;;;;;;;;;9.60;99.90;;;;;;5034271;28;19960;-75
2021/05/09 00:43:06;;;;;;;;;;;9.60;99.90;;;;;;5048047;28;20015;-75
2021/05/09 00:45:34;;;;;;;;;;;9.50;99.90;;;;;;5013990;28;20555;-75
2021/05/09 00:48:02;;;;;;;;;;;9.60;99.90;;;;;;5050163;28;20015;-75
2021/05/09 00:50:30;;;;;;;;;;;9.50;99.90;;;;;;5048213;28;19970;-76
2021/05/09 00:52:56;;;;;;;;;;;9.50;99.90;;;;;;5032238;28;19912;-76
2021/05/09 00:55:23;;;;;;;;;;;9.50;99.90;;;;;;5031257;28;19917;-76
2021/05/09 00:57:49;;;;;;;;;;;9.40;99.90;;;;;;5029835;28;19912;-75
2021/05/09 01:00:15;;;;;;;;;;;9.40;99.90;;;;;;5031237;28;19932;-75
2021/05/09 01:02:41;;;;;;;;;;;9.40;99.90;;;;;;5048379;28;19917;-75
2021/05/09 01:05:07;;;;;;;;;;;9.40;99.90;;;;;;5030182;28;19924;-75
2021/05/09 01:07:36;;;;;;;;;;;9.30;99.90;;;;;;5030880;28;19974;-75
2021/05/09 01:10:04;;;;;;;;;;;9.30;99.90;;;;;;5048151;28;20023;-75
2021/05/09 01:12:32;;;;;;;;;;;9.30;99.90;;;;;;5030441;28;19964;-75
2021/05/09 01:15:02;;;;;;;;;;;9.30;99.90;;;;;;5049054;28;19962;-74
2021/05/09 01:17:27;;;;;;;;;;;9.30;99.90;;;;;;5027641;28;19921;-74
2021/05/09 01:19:55;;;;;;;;;;;9.20;99.90;;;;;;5048298;28;19927;-75
2021/05/09 01:22:23;;;;;;;;;;;9.20;99.90;;;;;;5049168;28;19921;-75
2021/05/09 01:24:51;;;;;;;;;;;9.20;99.90;;;;;;5049189;28;19925;-75
2021/05/09 01:27:19;;;;;;;;;;;9.20;99.90;;;;;;5033680;28;20429;-75
2021/05/09 01:29:44;;;;;;;;;;;9.20;99.90;;;;;;5022638;28;20548;-74
2021/05/09 01:32:12;;;;;;;;;;;9.10;99.90;;;;;;5030097;28;19974;-75
2021/05/09 01:34:38;;;;;;;;;;;9.10;99.90;;;;;;5030990;28;19916;-74
2021/05/09 01:37:04;;;;;;;;;;;9.10;99.90;;;;;;5048213;28;19916;-74
2021/05/09 01:39:31;;;;;;;;;;;9.10;99.90;;;;;;5048665;28;19913;-75
2021/05/09 01:42:02;;;;;;;;;;;9.00;99.90;;;;;;5030848;28;19966;-75
2021/05/09 01:44:30;;;;;;;;;;;9.00;99.90;;;;;;5049303;28;19935;-74
2021/05/09 01:46:58;;;;;;;;;;;9.00;99.90;;;;;;5033138;28;20507;-75
2021/05/09 01:49:23;;;;;;;;;;;9.00;99.90;;;;;;5048369;28;19912;-75
2021/05/09 01:51:49;;;;;;;;;;;9.00;99.90;;;;;;5048150;28;20775;-74
2021/05/09 01:54:15;;;;;;;;;;;9.00;99.90;;;;;;5048167;28;19921;-75
2021/05/09 01:56:41;;;;;;;;;;;9.00;99.90;;;;;;5049307;28;20011;-75
2021/05/09 01:59:08;;;;;;;;;;;9.00;99.90;;;;;;5030182;28;19920;-74
2021/05/09 02:01:37;;;;;;;;;;;9.00;99.90;;;;;;5028924;28;19929;-74
2021/05/09 02:04:06;;;;;;;;;;;9.00;99.90;;;;;;5048472;28;20036;-74
2021/05/09 02:06:31;;;;;;;;;;;9.00;99.90;;;;;;5046173;28;19916;-74
2021/05/09 02:08:57;;;;;;;;;;;9.10;99.90;;;;;;5048442;28;19936;-74
2021/05/09 02:11:27;;;;;;;;;;;9.00;99.90;;;;;;5028872;28;19916;-74
2021/05/09 02:13:53;;;;;;;;;;;9.00;99.90;;;;;;5046823;28;19920;-74
2021/05/09 02:16:18;;;;;;;;;;;9.10;99.90;;;;;;5048044;28;19928;-74
2021/05/09 02:18:44;;;;;;;;;;;9.10;99.90;;;;;;5047046;28;19995;-74
2021/05/09 02:21:09;;;;;;;;;;;9.10;99.90;;;;;;5048745;28;19920;-74
2021/05/09 02:23:35;;;;;;;;;;;9.10;99.90;;;;;;5048175;28;20049;-74
2021/05/09 02:26:05;;;;;;;;;;;9.00;99.90;;;;;;5048079;28;19924;-74
2021/05/09 02:28:33;;;;;;;;;;;9.00;99.90;;;;;;5048535;28;20358;-74
2021/05/09 02:31:03;;;;;;;;;;;9.00;99.90;;;;;;5047230;28;19920;-74
2021/05/09 02:33:31;;;;;;;;;;;9.00;99.90;;;;;;5030112;28;19932;-74
2021/05/09 02:35:57;;;;;;;;;;;9.00;99.90;;;;;;5047619;28;19916;-74
2021/05/09 02:38:22;;;;;;;;;;;9.00;99.90;;;;;;5047009;28;19920;-74
2021/05/09 02:40:50;;;;;;;;;;;9.00;99.90;;;;;;5047307;28;20445;-74
2021/05/09 02:43:16;;;;;;;;;;;9.00;99.90;;;;;;5046396;28;19947;-75
2021/05/09 02:45:44;;;;;;;;;;;9.00;99.90;;;;;;5047014;28;20004;-74
2021/05/09 02:48:12;;;;;;;;;;;8.90;99.90;;;;;;5046833;28;20298;-74
2021/05/09 02:50:37;;;;;;;;;;;8.90;99.90;;;;;;5029333;28;20495;-74
2021/05/09 02:53:05;;;;;;;;;;;9.00;99.90;;;;;;5013118;28;20015;-73
2021/05/09 02:55:31;;;;;;;;;;;9.00;99.90;;;;;;5047063;28;19913;-74
2021/05/09 02:57:56;;;;;;;;;;;9.00;99.90;;;;;;5047718;28;19942;-74
2021/05/09 03:00:22;;;;;;;;;;;9.00;99.90;;;;;;5047701;28;19920;-74
2021/05/09 03:02:53;;;;;;;;;;;9.00;99.90;;;;;;5029739;28;19917;-74
2021/05/09 03:05:18;;;;;;;;;;;9.10;99.90;;;;;;5045584;28;19924;-74
2021/05/09 03:07:46;;;;;;;;;;;9.10;99.90;;;;;;5027780;28;19925;-74
2021/05/09 03:10:12;;;;;;;;;;;9.10;99.90;;;;;;5030587;28;19916;-74
2021/05/09 03:12:39;;;;;;;;;;;9.10;99.90;;;;;;5047138;28;20354;-74
2021/05/09 03:15:05;;;;;;;;;;;9.10;99.90;;;;;;5046571;28;22212;-74
2021/05/09 03:17:32;;;;;;;;;;;9.10;99.90;;;;;;5049134;28;19924;-74
2021/05/09 03:19:58;;;;;;;;;;;9.10;99.90;;;;;;5050580;28;19912;-74
2021/05/09 03:22:24;;;;;;;;;;;9.10;99.90;;;;;;5051171;28;19917;-74
2021/05/09 03:24:49;;;;;;;;;;;9.20;99.90;;;;;;5050444;28;19972;-74
2021/05/09 03:27:15;;;;;;;;;;;9.10;99.90;;;;;;5050881;28;20405;-73
2021/05/09 03:29:43;;;;;;;;;;;9.10;99.90;;;;;;5051097;28;19932;-74
2021/05/09 03:32:08;;;;;;;;;;;9.10;99.90;;;;;;5033147;28;19960;-74
2021/05/09 03:34:36;;;;;;;;;;;9.20;99.90;;;;;;5033170;28;20000;-74
2021/05/09 03:37:04;;;;;;;;;;;9.10;99.90;;;;;;5031361;28;20523;-74
2021/05/09 03:39:29;;;;;;;;;;;9.20;99.90;;;;;;5051638;28;19972;-74
2021/05/09 03:41:57;;;;;;;;;;;9.10;99.90;;;;;;5051612;28;20005;-74
2021/05/09 03:44:25;;;;;;;;;;;9.20;99.90;;;;;;5032724;28;19924;-74
2021/05/09 03:46:55;;;;;;;;;;;9.10;99.90;;;;;;5050252;28;19935;-74
2021/05/09 03:49:21;;;;;;;;;;;9.20;99.90;;;;;;5050621;28;19921;-74
2021/05/09 03:51:49;;;;;;;;;;;9.10;99.90;;;;;;5050688;28;19958;-74
2021/05/09 03:54:14;;;;;;;;;;;9.10;99.90;;;;;;5051746;28;19920;-74
2021/05/09 03:56:40;;;;;;;;;;;9.10;99.90;;;;;;5051323;28;19928;-74
2021/05/09 03:59:08;;;;;;;;;;;9.20;99.90;;;;;;5051437;28;19928;-74
2021/05/09 04:01:35;;;;;;;;;;;9.20;99.90;;;;;;5051226;28;20374;-74
2021/05/09 04:04:03;;;;;;;;;;;9.20;99.90;;;;;;5049428;28;19982;-74
2021/05/09 04:06:29;;;;;;;;;;;9.10;99.90;;;;;;5051008;28;19955;-74
2021/05/09 04:08:57;;;;;;;;;;;9.10;99.90;;;;;;5050684;28;20011;-74
2021/05/09 04:11:22;;;;;;;;;;;9.20;99.90;;;;;;5049669;28;19939;-74
2021/05/09 04:13:48;;;;;;;;;;;9.10;99.90;;;;;;5050933;28;19920;-74
2021/05/09 04:16:14;;;;;;;;;;;9.20;99.90;;;;;;5050493;28;19917;-73
2021/05/09 04:18:42;;;;;;;;;;;9.20;99.90;;;;;;5049791;28;20377;-73
2021/05/09 04:21:08;;;;;;;;;;;9.20;99.90;;;;;;5050602;28;20489;-74
2021/05/09 04:23:35;;;;;;;;;;;9.20;99.90;;;;;;5048994;28;19920;-74
2021/05/09 04:26:01;;;;;;;;;;;9.20;99.90;;;;;;5032428;28;20420;-75
2021/05/09 04:28:27;;;;;;;;;;;9.20;99.90;;;;;;5049977;28;19925;-74
2021/05/09 04:30:52;;;;;;;;;;;9.30;99.90;;;;;;5049362;28;19974;-74
2021/05/09 04:33:18;;;;;;;;;;;9.30;99.90;;;;;;5049448;28;20107;-74
2021/05/09 04:35:44;;;;;;;;;;;9.30;99.90;;;;;;5050908;28;19917;-75
2021/05/09 04:38:13;;;;;;;;;;;9.30;99.90;;;;;;5028390;28;19990;-75
2021/05/09 04:40:43;;;;;;;;;;;9.40;99.90;;;;;;5013978;28;19920;-74
2021/05/09 04:43:13;;;;;;;;;;;9.40;99.90;;;;;;5031647;28;20018;-74
2021/05/09 04:45:38;;;;;;;;;;;9.40;99.90;;;;;;5049207;28;19923;-74
2021/05/09 04:48:09;;;;;;;;;;;9.40;99.90;;;;;;5049190;28;19928;-74
2021/05/09 04:50:34;;;;;;;;;;;9.40;99.90;;;;;;5050793;28;20338;-74
2021/05/09 04:53:00;;;;;;;;;;;9.40;99.90;;;;;;5049752;28;20067;-74
2021/05/09 04:55:25;;;;;;;;;;;9.40;99.90;;;;;;5032912;28;19928;-74
2021/05/09 04:57:53;;;;;;;;;;;9.50;99.90;;;;;;5030909;28;19948;-74
2021/05/09 05:00:19;;;;;;;;;;;9.40;99.90;;;;;;5015011;28;19928;-74
2021/05/09 05:02:45;;;;;;;;;;;9.50;99.90;;;;;;5049275;28;19921;-74
2021/05/09 05:05:11;;;;;;;;;;;9.50;99.90;;;;;;5049276;28;19936;-74
2021/05/09 05:07:39;;;;;;;;;;;9.60;99.90;;;;;;5051427;28;19921;-73
2021/05/09 05:10:04;;;;;;;;;;;9.60;99.90;;;;;;5049278;28;19974;-73
2021/05/09 05:12:30;;;;;;;;;;;9.70;99.90;;;;;;5016394;28;19920;-74
2021/05/09 05:14:55;;;;;;;;;;;9.70;99.90;;;;;;5050501;28;19923;-74
2021/05/09 05:17:23;;;;;;;;;;;9.80;99.90;;;;;;5032376;28;19912;-74
2021/05/09 05:19:49;;;;;;;;;;;9.90;99.90;;;;;;5047591;28;21640;-74
2021/05/09 05:22:14;;;;;;;;;;;9.90;99.90;;;;;;5050058;28;20139;-74
2021/05/09 05:24:40;;;;;;;;;;;10.00;99.90;;;;;;5048939;28;19924;-74
2021/05/09 05:27:08;;;;;;;;;;;10.10;99.90;;;;;;5048782;28;19939;-74
2021/05/09 05:29:35;;;;;;;;;;;10.20;99.90;;;;;;5049114;28;19924;-74
2021/05/09 05:32:01;;;;;;;;;;;10.20;99.90;;;;;;5048943;28;19921;-74
2021/05/09 05:34:26;;;;;;;;;;;10.30;99.90;;;;;;5049232;28;20373;-74
2021/05/09 05:36:52;;;;;;;;;;;10.40;99.90;;;;;;5031595;28;20278;-74
2021/05/09 05:39:18;;;;;;;;;;;10.40;99.90;;;;;;5048388;28;19952;-74
2021/05/09 05:41:44;;;;;;;;;;;10.50;99.90;;;;;;5048917;28;19927;-74
2021/05/09 05:44:09;;;;;;;;;;;10.50;99.90;;;;;;5048554;28;19921;-74
2021/05/09 05:46:35;;;;;;;;;;;10.50;99.90;;;;;;5030691;28;19921;-74
2021/05/09 05:49:00;;;;;;;;;;;10.60;99.90;;;;;;5049809;28;19955;-73
2021/05/09 05:51:26;;;;;;;;;;;10.70;99.90;;;;;;5029210;28;20050;-74
2021/05/09 05:53:59;;;;;;;;;;;10.70;99.90;;;;;;5048352;28;19924;-74
2021/05/09 05:56:25;;;;;;;;;;;10.80;99.90;;;;;;5031483;28;19948;-74
2021/05/09 05:58:53;;;;;;;;;;;10.80;99.90;;;;;;5030503;28;19982;-74
2021/05/09 06:01:19;;;;;;;;;;;10.90;99.90;;;;;;5030152;28;19921;-74
2021/05/09 06:03:47;;;;;;;;;;;10.90;99.90;;;;;;5048850;28;20180;-74
2021/05/09 06:06:14;;;;;;;;;;;11.00;99.90;;;;;;5048331;28;21938;-74
2021/05/09 06:08:41;;;;;;;;;;;11.00;99.90;;;;;;5048209;28;19964;-74
2021/05/09 06:11:07;;;;;;;;;;;11.10;99.90;;;;;;5048913;28;20840;-74
2021/05/09 06:13:32;;;;;;;;;;;11.20;99.90;;;;;;5048554;28;19917;-74
2021/05/09 06:16:00;;;;;;;;;;;11.30;99.90;;;;;;5048400;28;19921;-74
2021/05/09 06:18:26;;;;;;;;;;;11.30;99.90;;;;;;5014171;28;19977;-74
2021/05/09 06:20:54;;;;;;;;;;;11.40;99.90;;;;;;5031587;28;19929;-74
2021/05/09 06:23:22;;;;;;;;;;;11.50;99.90;;;;;;5030600;28;20409;-74
2021/05/09 06:25:50;;;;;;;;;;;11.60;99.90;;;;;;5046994;28;19963;-73
2021/05/09 06:28:16;;;;;;;;;;;11.70;99.90;;;;;;5047841;28;19920;-74
2021/05/09 06:30:43;;;;;;;;;;;11.80;99.90;;;;;;5029699;28;19988;-74
2021/05/09 06:33:09;;;;;;;;;;;11.90;99.90;;;;;;5048269;28;19916;-74
2021/05/09 06:35:39;;;;;;;;;;;11.90;99.90;;;;;;5046807;28;19952;-74
2021/05/09 06:38:07;;;;;;;;;;;12.00;99.90;;;;;;5027386;28;19925;-74
2021/05/09 06:40:36;;;;;;;;;;;12.10;99.90;;;;;;5029527;28;20258;-74
2021/05/09 06:43:04;;;;;;;;;;;12.20;99.90;;;;;;5030670;28;20692;-74
2021/05/09 06:45:30;;;;;;;;;;;12.20;99.90;;;;;;5030392;28;19928;-74
2021/05/09 06:47:56;;;;;;;;;;;12.30;99.90;;;;;;5048568;28;19930;-74
2021/05/09 06:50:21;;;;;;;;;;;12.40;99.90;;;;;;5047309;28;20509;-74
2021/05/09 06:52:47;;;;;;;;;;;12.50;99.90;;;;;;5028659;28;19979;-74
2021/05/09 06:55:12;;;;;;;;;;;12.60;99.90;;;;;;5028244;28;19970;-74
2021/05/09 06:57:38;;;;;;;;;;;12.70;99.90;;;;;;5028705;28;19949;-74
2021/05/09 07:00:05;;;;;;;;;;;13.10;99.90;;;;;;5029019;28;19964;-74
2021/05/09 07:02:30;;;;;;;;;;;13.40;99.90;;;;;;5029919;28;19969;-74
2021/05/09 07:04:58;;;;;;;;;;;13.70;99.90;;;;;;5047303;28;19928;-74
2021/05/09 07:07:24;;;;;;;;;;;14.00;99.90;;;;;;5027038;28;19932;-73
2021/05/09 07:09:49;;;;;;;;;;;14.10;99.90;;;;;;5046910;28;19924;-74
2021/05/09 07:12:17;;;;;;;;;;;14.40;98.70;;;;;;5046290;28;19931;-74
2021/05/09 07:14:43;;;;;;;;;;;14.70;98.40;;;;;;5046492;28;19917;-74
2021/05/09 07:17:09;;;;;;;;;;;14.90;99.90;;;;;;5047649;28;19924;-73
2021/05/09 07:19:37;;;;;;;;;;;15.00;96.70;;;;;;5046967;28;19920;-74
2021/05/09 07:22:06;;;;;;;;;;;15.20;99.90;;;;;;5029083;28;19921;-73
2021/05/09 07:24:34;;;;;;;;;;;15.40;95.70;;;;;;5046083;28;19924;-74
2021/05/09 07:27:02;;;;;;;;;;;15.60;92.30;;;;;;5046862;28;20428;-74
2021/05/09 07:29:27;;;;;;;;;;;15.80;89.60;;;;;;5026232;28;19947;-74
2021/05/09 07:31:53;;;;;;;;;;;16.00;91.00;;;;;;5030555;28;19922;-74
2021/05/09 07:34:19;;;;;;;;;;;16.00;92.50;;;;;;5046327;28;20382;-74
2021/05/09 07:36:47;;;;;;;;;;;16.20;88.80;;;;;;5046123;28;20391;-74
2021/05/09 07:39:17;;;;;;;;;;;16.20;92.30;;;;;;5046774;28;19917;-74
2021/05/09 07:41:45;;;;;;;;;;;16.40;85.30;;;;;;5046930;28;19917;-74
2021/05/09 07:44:13;;;;;;;;;;;16.50;85.40;;;;;;5045991;28;19917;-74
2021/05/09 07:46:40;;;;;;;;;;;16.70;83.50;;;;;;5046987;28;19939;-73
2021/05/09 07:49:08;;;;;;;;;;;16.80;82.10;;;;;;5030463;28;20477;-73
2021/05/09 07:51:36;;;;;;;;;;;17.00;81.00;;;;;;5046747;28;19966;-73
2021/05/09 07:54:04;;;;;;;;;;;17.10;84.60;;;;;;5028896;28;19927;-73
2021/05/09 07:56:30;;;;;;;;;;;17.40;82.60;;;;;;5046568;28;19960;-73
2021/05/09 07:58:55;;;;;;;;;;;17.60;78.20;;;;;;5046123;28;20007;-73
2021/05/09 08:01:21;;;;;;;;;;;17.70;78.40;;;;;;5046388;28;20259;-72
2021/05/09 08:03:46;;;;;;;;;;;18.00;73.30;;;;;;5027813;28;20016;-72
2021/05/09 08:06:14;;;;;;;;;;;18.10;72.20;;;;;;5033157;28;19983;-73
2021/05/09 08:08:40;;;;;;;;;;;18.40;75.70;;;;;;5021688;28;19924;-72
2021/05/09 08:11:05;;;;;;;;;;;18.50;78.30;;;;;;5050844;28;19927;-73
2021/05/09 08:13:31;;;;;;;;;;;18.70;71.50;;;;;;5032091;28;20015;-72
2021/05/09 08:15:57;;;;;;;;;;;18.90;70.60;;;;;;5050492;28;19932;-73
2021/05/09 08:18:25;;;;;;;;;;;19.00;70.30;;;;;;5049453;28;19916;-73
2021/05/09 08:20:53;;;;;;;;;;;19.10;71.20;;;;;;5031128;28;19912;-72
2021/05/09 08:23:20;;;;;;;;;;;19.20;67.10;;;;;;5032150;28;19932;-72
2021/05/09 08:25:45;;;;;;;;;;;19.30;66.40;;;;;;4353223;28;10000795;-72
2021/05/09 08:28:11;;;;;;;;;;;19.40;71.20;;;;;;5050948;28;19948;-71
2021/05/09 08:30:36;;;;;;;;;;;19.50;66.50;;;;;;5031489;28;19920;-73
2021/05/09 08:33:02;;;;;;;;;;;19.70;68.40;;;;;;5050338;28;19916;-72
2021/05/09 08:35:27;;;;;;;;;;;19.90;68.10;;;;;;5029671;28;20340;-73
2021/05/09 08:37:55;;;;;;;;;;;20.10;66.60;;;;;;5050163;28;19916;-73
2021/05/09 08:40:21;;;;;;;;;;;20.20;69.30;;;;;;5051112;28;19916;-73
2021/05/09 08:42:47;;;;;;;;;;;20.40;69.80;;;;;;5049498;28;20215;-73
2021/05/09 08:45:12;;;;;;;;;;;20.40;63.90;;;;;;5021250;28;19951;-73
2021/05/09 08:47:41;;;;;;;;;;;20.60;64.80;;;;;;5048859;28;19956;-73
2021/05/09 08:50:07;;;;;;;;;;;20.70;70.70;;;;;;5049611;28;20015;-73
2021/05/09 08:52:38;;;;;;;;;;;20.80;64.30;;;;;;5049613;28;20001;-72
2021/05/09 08:55:04;;;;;;;;;;;20.90;62.20;;;;;;5014830;28;19997;-74
2021/05/09 08:57:29;;;;;;;;;;;21.00;67.90;;;;;;5031246;28;19917;-72
2021/05/09 08:59:55;;;;;;;;;;;21.10;60.80;;;;;;5032605;28;19948;-73
2021/05/09 09:02:21;;;;;;;;;;;21.20;63.70;;;;;;5030417;28;19916;-73
2021/05/09 09:04:50;;;;;;;;;;;21.20;66.00;;;;;;5025567;28;20011;-72
2021/05/09 09:07:15;;;;;;;;;;;21.30;67.30;;;;;;5028848;28;19921;-73
2021/05/09 09:09:47;;;;;;;;;;;21.20;59.80;;;;;;5048596;28;19932;-73
2021/05/09 09:12:13;;;;;;;;;;;21.30;66.20;;;;;;5049582;28;19967;-74
2021/05/09 09:15:08;;;;;;;;;;;21.40;60.40;;;;;;5013426;28;19913;-73
2021/05/09 09:17:34;;;;;;;;;;;21.50;63.30;;;;;;5040159;28;19920;-73
2021/05/09 09:20:13;;;;;;;;;;;21.70;63.30;;;;;;5048061;28;20346;-74
2021/05/09 09:22:55;;;;;;;;;;;21.80;61.50;;;;;;5048930;28;19917;-74
2021/05/09 09:25:28;;;;;;;;;;;21.90;62.60;;;;;;5047769;28;20331;-74
2021/05/09 09:27:56;;;;;;;;;;;22.00;62.50;;;;;;5049157;28;20327;-73
2021/05/09 09:30:23;;;;;;;;;;;22.10;59.50;;;;;;5030159;28;19916;-73
2021/05/09 09:33:08;;;;;;;;;;;22.00;58.80;;;;;;5048601;28;19916;-76
2021/05/09 09:35:33;;;;;;;;;;;22.00;59.00;;;;;;5029367;28;19916;-72
2021/05/09 09:37:59;;;;;;;;;;;22.00;57.80;;;;;;5047839;28;19920;-73
2021/05/09 09:40:27;;;;;;;;;;;22.10;60.90;;;;;;5030179;28;19916;-73
2021/05/09 09:42:52;;;;;;;;;;;22.10;61.30;;;;;;5027718;28;19917;-75
2021/05/09 09:45:28;;;;;;;;;;;22.30;63.60;;;;;;5029395;28;19946;-73
2021/05/09 09:47:56;;;;;;;;;;;22.30;58.50;;;;;;5048280;28;19985;-80
2021/05/09 09:50:58;;;;;;;;;;;22.40;62.90;;;;;;5028361;28;19974;-73
2021/05/09 09:53:42;;;;;;;;;;;22.40;58.00;;;;;;5006831;28;19921;-72
2021/05/09 09:56:08;;;;;;;;;;;22.50;62.80;;;;;;5025253;28;20012;-74
2021/05/09 09:58:57;;;;;;;;;;;22.60;62.30;;;;;;5048379;28;19967;-73
2021/05/09 10:01:24;;;;;;;;;;;22.60;61.80;;;;;;5040424;28;19920;-71
2021/05/09 10:03:53;;;;;;;;;;;22.70;59.20;;;;;;5033126;28;20019;-72
2021/05/09 10:06:19;;;;;;;;;;;22.90;60.30;;;;;;5047651;28;20035;-72
2021/05/09 10:08:47;;;;;;;;;;;22.90;59.30;;;;;;5048701;28;19936;-73
2021/05/09 10:11:17;;;;;;;;;;;23.00;60.00;;;;;;5031351;28;19916;-73
2021/05/09 10:13:45;;;;;;;;;;;23.00;58.30;;;;;;5046373;28;19916;-73
2021/05/09 10:16:13;;;;;;;;;;;23.20;61.60;;;;;;5048582;28;19917;-73
2021/05/09 10:18:39;;;;;;;;;;;23.40;62.90;;;;;;5031194;28;19920;-73
2021/05/09 10:21:05;;;;;;;;;;;23.30;59.70;;;;;;5030836;28;19920;-73
2021/05/09 10:23:33;;;;;;;;;;;23.40;59.00;;;;;;5046553;28;20333;-71
2021/05/09 10:26:01;;;;;;;;;;;23.40;57.40;;;;;;5048043;28;20004;-73
2021/05/09 10:28:36;;;;;;;;;;;23.50;58.50;;;;;;5028523;28;20072;-71
2021/05/09 10:31:04;;;;;;;;;;;23.70;62.90;;;;;;5049000;28;19916;-72
2021/05/09 10:33:48;;;;;;;;;;;23.60;58.80;;;;;;5047798;28;19931;-73
2021/05/09 10:36:23;;;;;;;;;;;23.60;60.60;;;;;;5048522;28;19917;-73
2021/05/09 10:39:09;;;;;;;;;;;23.70;61.20;;;;;;5047854;28;19921;-73
2021/05/09 10:41:35;;;;;;;;;;;23.80;57.80;;;;;;5031089;28;19916;-73
2021/05/09 10:44:10;;;;;;;;;;;23.70;58.10;;;;;;5046223;28;20259;-73
2021/05/09 10:46:54;;;;;;;;;;;23.70;57.60;;;;;;5046039;28;19924;-72
2021/05/09 10:49:20;;;;;;;;;;;23.90;59.90;;;;;;5047165;28;19917;-74
2021/05/09 10:51:48;;;;;;;;;;;23.90;57.70;;;;;;5029314;28;19932;-74
2021/05/09 10:54:20;;;;;;;;;;;24.00;56.20;;;;;;5029688;28;19924;-72
2021/05/09 10:56:46;;;;;;;;;;;24.30;62.00;;;;;;5046481;28;19921;-70
2021/05/09 10:59:14;;;;;;;;;;;24.50;55.40;;;;;;5046608;28;19921;-70
2021/05/09 11:01:40;;;;;;;;;;;24.80;60.00;;;;;;5028481;28;19920;-70
2021/05/09 11:04:08;;;;;;;;;;;24.90;58.00;;;;;;5044929;28;19924;-70
2021/05/09 11:06:37;;;;;;;;;;;25.00;57.70;;;;;;5009829;28;19987;-70
2021/05/09 11:09:11;;;;;;;;;;;25.20;56.80;;;;;;5030875;28;20065;-70
2021/05/09 11:11:39;;;;;;;;;;;25.40;55.80;;;;;;5046785;28;20638;-71
2021/05/09 11:14:11;;;;;;;;;;;25.60;56.40;;;;;;5045772;28;20010;-73
2021/05/09 11:16:55;;;;;;;;;;;25.70;58.70;;;;;;5045913;28;20012;-72
2021/05/09 11:19:21;;;;;;;;;;;25.70;50.70;;;;;;5044670;28;19955;-71
2021/05/09 11:21:49;;;;;;;;;;;25.80;50.20;;;;;;5046014;28;19921;-70
2021/05/09 11:24:21;;;;;;;;;;;26.10;55.20;;;;;;5046643;28;19963;-70
2021/05/09 11:26:48;;;;;;;;;;;26.30;51.70;;;;;;5044778;28;19974;-70
2021/05/09 11:29:17;;;;;;;;;;;26.40;50.10;;;;;;5044798;28;19955;-72
2021/05/09 11:31:44;;;;;;;;;;;26.50;52.40;;;;;;5045782;28;19931;-72
2021/05/09 11:34:09;;;;;;;;;;;26.60;47.60;;;;;;4999240;28;20045;-72
2021/05/09 11:36:37;;;;;;;;;;;26.60;48.40;;;;;;5027731;28;20285;-73
2021/05/09 11:39:22;;;;;;;;;;;26.70;52.70;;;;;;5048364;28;19999;-71
2021/05/09 11:41:54;;;;;;;;;;;26.80;48.80;;;;;;5031841;28;19920;-73
2021/05/09 11:44:22;;;;;;;;;;;26.90;49.30;;;;;;5049639;28;19947;-73
2021/05/09 11:46:48;;;;;;;;;;;27.00;45.70;;;;;;5050001;28;20249;-73
2021/05/09 11:49:20;;;;;;;;;;;27.20;49.20;;;;;;5032034;28;19921;-73
2021/05/09 11:51:47;;;;;;;;;;;27.20;46.60;;;;;;5049797;28;21783;-72
2021/05/09 11:54:13;;;;;;;;;;;27.20;46.50;;;;;;5014906;28;19924;-72
2021/05/09 11:57:08;;;;;;;;;;;27.40;47.00;;;;;;5048715;28;19927;-71
2021/05/09 11:59:35;;;;;;;;;;;27.50;47.10;;;;;;5036684;28;19916;-72
2021/05/09 12:02:16;;;;;;;;;;;27.60;45.80;;;;;;5050404;28;20007;-72
2021/05/09 12:05:04;;;;;;;;;;;27.70;46.50;;;;;;5050949;28;19952;-73
2021/05/09 12:07:33;;;;;;;;;;;27.80;47.80;;;;;;5050738;28;19917;-72
2021/05/09 12:10:00;;;;;;;;;;;27.80;46.50;;;;;;5032358;28;19925;-72
2021/05/09 12:12:26;;;;;;;;;;;27.80;45.90;;;;;;5031814;28;19921;-72
2021/05/09 12:14:55;;;;;;;;;;;27.90;51.00;;;;;;5049744;28;19916;-72
2021/05/09 12:17:25;;;;;;;;;;;27.90;48.60;;;;;;5031556;28;20397;-72
2021/05/09 12:19:54;;;;;;;;;;;28.00;47.90;;;;;;5014580;28;19916;-72
2021/05/09 12:22:22;;;;;;;;;;;28.00;47.10;;;;;;5048384;28;20547;-73
2021/05/09 12:24:48;;;;;;;;;;;28.00;46.50;;;;;;5049780;28;19964;-73
2021/05/09 12:27:16;;;;;;;;;;;28.00;49.50;;;;;;5029555;28;19917;-73
2021/05/09 12:29:54;;;;;;;;;;;27.80;45.60;;;;;;5030384;28;19932;-72
2021/05/09 12:32:33;;;;;;;;;;;27.90;46.00;;;;;;5047527;28;19921;-72
2021/05/09 12:34:59;;;;;;;;;;;27.80;48.00;;;;;;5048397;28;20051;-72
2021/05/09 12:37:29;;;;;;;;;;;27.80;47.40;;;;;;5048347;28;19977;-72
2021/05/09 12:40:13;;;;;;;;;;;27.60;44.10;;;;;;5031662;28;20372;-72
2021/05/09 12:42:55;;;;;;;;;;;27.50;43.70;;;;;;5048415;28;19982;-72
2021/05/09 12:45:31;;;;;;;;;;;27.20;43.40;;;;;;5030111;28;19924;-72
2021/05/09 12:48:02;;;;;;;;;;;27.20;43.50;;;;;;5013850;28;19921;-72
2021/05/09 12:50:43;;;;;;;;;;;27.00;44.50;;;;;;5047769;28;19927;-72
2021/05/09 12:53:08;;;;;;;;;;;27.00;46.20;;;;;;5047351;28;19971;-72
2021/05/09 12:55:36;;;;;;;;;;;27.00;47.20;;;;;;5030742;28;20007;-71
2021/05/09 12:58:13;;;;;;;;;;;26.90;45.70;;;;;;5049271;28;19921;-75
2021/05/09 13:00:38;;;;;;;;;;;26.90;46.00;;;;;;5047925;28;19944;-72
2021/05/09 13:03:04;;;;;;;;;;;27.00;47.80;;;;;;5030280;28;19924;-72
2021/05/09 13:05:29;;;;;;;;;;;26.90;48.40;;;;;;5030717;28;19931;-72
2021/05/09 13:07:55;;;;;;;;;;;26.90;45.10;;;;;;5047706;28;20019;-72
2021/05/09 13:10:23;;;;;;;;;;;27.10;46.40;;;;;;5030146;28;19921;-72
2021/05/09 13:12:49;;;;;;;;;;;27.30;50.10;;;;;;5047522;28;19917;-73
2021/05/09 13:15:20;;;;;;;;;;;27.40;47.60;;;;;;5046651;28;20455;-72
2021/05/09 13:17:48;;;;;;;;;;;27.50;44.50;;;;;;5029470;28;20408;-73
2021/05/09 13:20:16;;;;;;;;;;;27.70;49.40;;;;;;5046752;28;19974;-72
2021/05/09 13:22:41;;;;;;;;;;;27.90;45.20;;;;;;5047426;28;19928;-76
2021/05/09 13:25:09;;;;;;;;;;;28.10;43.60;;;;;;5027431;28;19921;-73
2021/05/09 13:27:35;;;;;;;;;;;28.10;43.30;;;;;;5015289;28;20436;-73
2021/05/09 13:30:04;;;;;;;;;;;28.10;45.90;;;;;;5046877;28;19939;-73
2021/05/09 13:32:32;;;;;;;;;;;28.00;42.80;;;;;;5046753;28;19982;-73
2021/05/09 13:34:57;;;;;;;;;;;28.00;44.90;;;;;;5048172;28;19935;-72
2021/05/09 13:37:23;;;;;;;;;;;28.00;43.90;;;;;;5047428;28;20003;-72
2021/05/09 13:39:48;;;;;;;;;;;27.90;45.70;;;;;;5029450;28;20345;-73
2021/05/09 13:42:14;;;;;;;;;;;27.90;44.70;;;;;;5047925;28;20437;-72
2021/05/09 13:44:40;;;;;;;;;;;27.80;44.70;;;;;;5047023;28;20239;-72
2021/05/09 13:47:07;;;;;;;;;;;27.80;44.80;;;;;;5047334;28;19928;-72
2021/05/09 13:49:33;;;;;;;;;;;27.90;49.10;;;;;;5047054;28;19920;-72
2021/05/09 13:51:58;;;;;;;;;;;27.90;46.10;;;;;;5047637;28;19943;-73
2021/05/09 13:54:24;;;;;;;;;;;27.90;47.30;;;;;;5029051;28;19921;-72
2021/05/09 13:56:52;;;;;;;;;;;27.90;45.90;;;;;;5046433;28;20400;-74
2021/05/09 13:59:20;;;;;;;;;;;27.70;42.80;;;;;;5048150;28;19999;-73
2021/05/09 14:01:46;;;;;;;;;;;27.60;46.10;;;;;;5046232;28;20316;-74
2021/05/09 14:04:12;;;;;;;;;;;27.40;44.10;;;;;;5046599;28;19916;-73
2021/05/09 14:06:40;;;;;;;;;;;27.30;45.10;;;;;;5044037;28;19924;-73
2021/05/09 14:09:05;;;;;;;;;;;27.30;45.90;;;;;;5013683;28;20011;-72
2021/05/09 14:11:31;;;;;;;;;;;27.30;47.30;;;;;;5030605;28;20094;-72
2021/05/09 14:13:59;;;;;;;;;;;27.30;46.30;;;;;;5027129;28;19970;-73
2021/05/09 14:16:25;;;;;;;;;;;27.30;46.30;;;;;;5047419;28;19917;-72
2021/05/09 14:18:50;;;;;;;;;;;27.40;45.50;;;;;;5046157;28;19924;-72
2021/05/09 14:21:18;;;;;;;;;;;27.40;45.10;;;;;;5046283;28;19920;-72
2021/05/09 14:23:46;;;;;;;;;;;27.50;48.40;;;;;;5027737;28;19920;-73
2021/05/09 14:26:14;;;;;;;;;;;27.50;45.20;;;;;;5024340;28;19920;-73